sensor_id;sensor_type;location;lat;lon;timestamp;pressure;altitude;pressure_sealevel;temperature;humidity
47753;BME280;2038;51.728;6.674;2024-02-23T00:00:49;75266.31;;;-141.64;85.71
47753;BME280;2038;51.728;6.674;2024-02-23T00:03:15;75289.75;;;-141.64;85.50
47753;BME280;2038;51.728;6.674;2024-02-23T00:05:41;75279.97;;;-141.64;85.79
47753;BME280;2038;51.728;6.674;2024-02-23T00:08:08;75293.66;;;-141.64;86.13
47753;BME280;2038;51.728;6.674;2024-02-23T00:10:37;75287.78;;;-141.64;85.79
47753;BME280;2038;51.728;6.674;2024-02-23T00:13:03;75285.84;;;-141.64;85.73
47753;BME280;2038;51.728;6.674;2024-02-23T00:15:30;75303.41;;;-141.64;85.82
47753;BME280;2038;51.728;6.674;2024-02-23T00:17:56;75311.22;;;-141.64;85.54
47753;BME280;2038;51.728;6.674;2024-02-23T00:20:22;75313.16;;;-141.64;85.64
47753;BME280;2038;51.728;6.674;2024-02-23T00:22:48;75317.06;;;-141.64;85.40
47753;BME280;2038;51.728;6.674;2024-02-23T00:25:15;75319.03;;;-141.64;85.37
47753;BME280;2038;51.728;6.674;2024-02-23T00:27:41;75313.16;;;-141.64;85.31
47753;BME280;2038;51.728;6.674;2024-02-23T00:30:08;75319.03;;;-141.64;85.00
47753;BME280;2038;51.728;6.674;2024-02-23T00:32:34;75320.97;;;-141.64;84.28
47753;BME280;2038;51.728;6.674;2024-02-23T00:35:01;75320.97;;;-141.64;84.63
47753;BME280;2038;51.728;6.674;2024-02-23T00:37:27;75315.13;;;-141.64;84.84
47753;BME280;2038;51.728;6.674;2024-02-23T00:39:53;75324.88;;;-141.64;84.64
47753;BME280;2038;51.728;6.674;2024-02-23T00:42:19;75332.69;;;-141.64;84.77
47753;BME280;2038;51.728;6.674;2024-02-23T00:44:46;75336.59;;;-141.64;84.51
47753;BME280;2038;51.728;6.674;2024-02-23T00:47:13;75342.44;;;-141.64;84.57
47753;BME280;2038;51.728;6.674;2024-02-23T00:49:39;75360.00;;;-141.64;84.40
47753;BME280;2038;51.728;6.674;2024-02-23T00:52:05;75342.44;;;-141.64;84.66
47753;BME280;2038;51.728;6.674;2024-02-23T00:54:31;75348.28;;;-141.64;84.25
47753;BME280;2038;51.728;6.674;2024-02-23T00:56:58;75350.25;;;-141.64;83.90
47753;BME280;2038;51.728;6.674;2024-02-23T00:59:24;75358.06;;;-141.64;83.91
47753;BME280;2038;51.728;6.674;2024-02-23T01:01:50;75360.00;;;-141.64;83.73
47753;BME280;2038;51.728;6.674;2024-02-23T01:04:16;75348.28;;;-141.64;83.03
47753;BME280;2038;51.728;6.674;2024-02-23T01:06:43;75350.25;;;-141.64;83.00
47753;BME280;2038;51.728;6.674;2024-02-23T01:09:09;75363.91;;;-141.64;83.36
47753;BME280;2038;51.728;6.674;2024-02-23T01:11:35;75367.81;;;-141.64;83.26
47753;BME280;2038;51.728;6.674;2024-02-23T01:14:01;75379.53;;;-141.64;83.10
47753;BME280;2038;51.728;6.674;2024-02-23T01:16:28;75393.19;;;-141.64;83.56
47753;BME280;2038;51.728;6.674;2024-02-23T01:18:54;75397.09;;;-141.64;83.89
47753;BME280;2038;51.728;6.674;2024-02-23T01:21:20;75395.13;;;-141.64;83.58
47753;BME280;2038;51.728;6.674;2024-02-23T01:23:47;75397.09;;;-141.64;83.61
47753;BME280;2038;51.728;6.674;2024-02-23T01:26:13;75408.81;;;-141.64;83.85
47753;BME280;2038;51.728;6.674;2024-02-23T01:28:40;75408.81;;;-141.64;83.56
47753;BME280;2038;51.728;6.674;2024-02-23T01:31:09;75402.94;;;-141.64;83.54
47753;BME280;2038;51.728;6.674;2024-02-23T01:33:39;75406.84;;;-141.64;83.51
47753;BME280;2038;51.728;6.674;2024-02-23T01:36:06;75393.19;;;-141.64;83.81
47753;BME280;2038;51.728;6.674;2024-02-23T01:38:33;75395.13;;;-141.64;83.65
47753;BME280;2038;51.728;6.674;2024-02-23T01:41:00;75387.34;;;-141.64;82.96
47753;BME280;2038;51.728;6.674;2024-02-23T01:43:26;75381.47;;;-141.64;82.59
47753;BME280;2038;51.728;6.674;2024-02-23T01:45:53;75375.63;;;-141.64;82.42
47753;BME280;2038;51.728;6.674;2024-02-23T01:48:20;75389.28;;;-141.64;82.44
47753;BME280;2038;51.728;6.674;2024-02-23T01:50:47;75379.53;;;-141.64;82.66
47753;BME280;2038;51.728;6.674;2024-02-23T01:53:13;75385.38;;;-141.64;81.98
47753;BME280;2038;51.728;6.674;2024-02-23T01:55:46;75379.53;;;-141.64;82.01
47753;BME280;2038;51.728;6.674;2024-02-23T01:58:13;75379.53;;;-141.64;81.55
47753;BME280;2038;51.728;6.674;2024-02-23T02:00:40;75369.75;;;-141.64;80.97
47753;BME280;2038;51.728;6.674;2024-02-23T02:03:07;75361.97;;;-141.64;80.60
47753;BME280;2038;51.728;6.674;2024-02-23T02:05:36;75360.00;;;-141.64;80.59
47753;BME280;2038;51.728;6.674;2024-02-23T02:08:03;75367.81;;;-141.64;81.09
47753;BME280;2038;51.728;6.674;2024-02-23T02:10:30;75360.00;;;-141.64;80.83
47753;BME280;2038;51.728;6.674;2024-02-23T02:13:05;75356.09;;;-141.64;80.12
47753;BME280;2038;51.728;6.674;2024-02-23T02:15:31;75361.97;;;-141.64;80.07
47753;BME280;2038;51.728;6.674;2024-02-23T02:17:58;75371.72;;;-141.64;80.37
47753;BME280;2038;51.728;6.674;2024-02-23T02:20:25;75371.72;;;-141.64;80.23
47753;BME280;2038;51.728;6.674;2024-02-23T02:22:53;75377.56;;;-141.64;80.37
47753;BME280;2038;51.728;6.674;2024-02-23T02:25:20;75375.63;;;-141.64;80.48
47753;BME280;2038;51.728;6.674;2024-02-23T02:27:46;75369.75;;;-141.64;79.81
47753;BME280;2038;51.728;6.674;2024-02-23T02:30:13;75367.81;;;-141.64;79.94
47753;BME280;2038;51.728;6.674;2024-02-23T02:32:39;75363.91;;;-141.64;79.25
47753;BME280;2038;51.728;6.674;2024-02-23T02:35:06;75373.66;;;-141.64;79.65
47753;BME280;2038;51.728;6.674;2024-02-23T02:37:32;75373.66;;;-141.64;79.87
47753;BME280;2038;51.728;6.674;2024-02-23T02:39:59;75363.91;;;-141.64;79.24
47753;BME280;2038;51.728;6.674;2024-02-23T02:42:25;75365.88;;;-141.64;79.09
47753;BME280;2038;51.728;6.674;2024-02-23T02:44:51;75387.34;;;-141.64;79.62
47753;BME280;2038;51.728;6.674;2024-02-23T02:47:18;75389.28;;;-141.64;79.72
47753;BME280;2038;51.728;6.674;2024-02-23T02:49:44;75373.66;;;-141.64;79.51
47753;BME280;2038;51.728;6.674;2024-02-23T02:52:10;75377.56;;;-141.64;79.22
47753;BME280;2038;51.728;6.674;2024-02-23T02:54:36;75379.53;;;-141.64;79.33
47753;BME280;2038;51.728;6.674;2024-02-23T02:57:03;75379.53;;;-141.64;79.25
47753;BME280;2038;51.728;6.674;2024-02-23T02:59:29;75375.63;;;-141.64;79.07
47753;BME280;2038;51.728;6.674;2024-02-23T03:01:57;75393.19;;;-141.64;78.96
47753;BME280;2038;51.728;6.674;2024-02-23T03:04:23;75385.38;;;-141.64;79.02
47753;BME280;2038;51.728;6.674;2024-02-23T03:06:49;75379.53;;;-141.64;78.97
47753;BME280;2038;51.728;6.674;2024-02-23T03:09:15;75401.00;;;-141.64;78.73
47753;BME280;2038;51.728;6.674;2024-02-23T03:11:42;75406.84;;;-141.64;79.21
47753;BME280;2038;51.728;6.674;2024-02-23T03:14:08;75408.81;;;-141.64;79.12
47753;BME280;2038;51.728;6.674;2024-02-23T03:16:35;75410.75;;;-141.64;79.11
47753;BME280;2038;51.728;6.674;2024-02-23T03:19:03;75418.56;;;-141.64;78.76
47753;BME280;2038;51.728;6.674;2024-02-23T03:21:30;75426.38;;;-141.64;79.02
47753;BME280;2038;51.728;6.674;2024-02-23T03:23:57;75430.28;;;-141.64;79.33
47753;BME280;2038;51.728;6.674;2024-02-23T03:26:23;75420.50;;;-141.64;79.42
47753;BME280;2038;51.728;6.674;2024-02-23T03:28:49;75440.03;;;-141.64;79.28
47753;BME280;2038;51.728;6.674;2024-02-23T03:31:15;75440.03;;;-141.64;79.27
47753;BME280;2038;51.728;6.674;2024-02-23T03:33:42;75453.69;;;-141.64;78.94
47753;BME280;2038;51.728;6.674;2024-02-23T03:36:08;75453.69;;;-141.64;79.28
47753;BME280;2038;51.728;6.674;2024-02-23T03:38:34;75463.44;;;-141.64;79.15
47753;BME280;2038;51.728;6.674;2024-02-23T03:41:00;75459.56;;;-141.64;79.28
47753;BME280;2038;51.728;6.674;2024-02-23T03:43:27;75473.22;;;-141.64;79.73
47753;BME280;2038;51.728;6.674;2024-02-23T03:45:53;75467.34;;;-141.64;79.55
47753;BME280;2038;51.728;6.674;2024-02-23T03:48:19;75459.56;;;-141.64;79.44
47753;BME280;2038;51.728;6.674;2024-02-23T03:50:46;75463.44;;;-141.64;79.69
47753;BME280;2038;51.728;6.674;2024-02-23T03:53:13;75475.16;;;-141.64;79.57
47753;BME280;2038;51.728;6.674;2024-02-23T03:55:39;75469.31;;;-141.64;79.65
47753;BME280;2038;51.728;6.674;2024-02-23T03:58:05;75479.06;;;-141.64;79.76
47753;BME280;2038;51.728;6.674;2024-02-23T04:00:32;75469.31;;;-141.64;79.53
47753;BME280;2038;51.728;6.674;2024-02-23T04:02:58;75469.31;;;-141.64;79.71
47753;BME280;2038;51.728;6.674;2024-02-23T04:05:24;75465.41;;;-141.64;79.76
47753;BME280;2038;51.728;6.674;2024-02-23T04:07:51;75477.13;;;-141.64;79.74
47753;BME280;2038;51.728;6.674;2024-02-23T04:10:17;75473.22;;;-141.64;79.52
47753;BME280;2038;51.728;6.674;2024-02-23T04:12:47;75451.75;;;-141.64;79.10
47753;BME280;2038;51.728;6.674;2024-02-23T04:15:13;75465.41;;;-141.64;79.28
47753;BME280;2038;51.728;6.674;2024-02-23T04:17:39;75461.50;;;-141.64;79.16
47753;BME280;2038;51.728;6.674;2024-02-23T04:20:07;75461.50;;;-141.64;79.08
47753;BME280;2038;51.728;6.674;2024-02-23T04:22:36;75477.13;;;-141.64;78.97
47753;BME280;2038;51.728;6.674;2024-02-23T04:25:03;75469.31;;;-141.64;78.93
47753;BME280;2038;51.728;6.674;2024-02-23T04:27:30;75473.22;;;-141.64;78.67
47753;BME280;2038;51.728;6.674;2024-02-23T04:29:57;75475.16;;;-141.64;79.17
47753;BME280;2038;51.728;6.674;2024-02-23T04:32:23;75469.31;;;-141.64;78.52
47753;BME280;2038;51.728;6.674;2024-02-23T04:34:49;75481.03;;;-141.64;78.47
47753;BME280;2038;51.728;6.674;2024-02-23T04:37:16;75473.22;;;-141.64;79.02
47753;BME280;2038;51.728;6.674;2024-02-23T04:39:44;75481.03;;;-141.64;78.84
47753;BME280;2038;51.728;6.674;2024-02-23T04:42:10;75479.06;;;-141.64;78.94
47753;BME280;2038;51.728;6.674;2024-02-23T04:44:36;75479.06;;;-141.64;78.96
47753;BME280;2038;51.728;6.674;2024-02-23T04:47:03;75481.03;;;-141.64;78.31
47753;BME280;2038;51.728;6.674;2024-02-23T04:49:29;75482.97;;;-141.64;78.11
47753;BME280;2038;51.728;6.674;2024-02-23T04:51:55;75490.78;;;-141.64;78.50
47753;BME280;2038;51.728;6.674;2024-02-23T04:54:21;75494.69;;;-141.64;78.27
47753;BME280;2038;51.728;6.674;2024-02-23T04:56:48;75490.78;;;-141.64;78.18
47753;BME280;2038;51.728;6.674;2024-02-23T04:59:14;75494.69;;;-141.64;78.56
47753;BME280;2038;51.728;6.674;2024-02-23T05:01:40;75498.59;;;-141.64;78.20
47753;BME280;2038;51.728;6.674;2024-02-23T05:04:07;75488.84;;;-141.64;78.29
47753;BME280;2038;51.728;6.674;2024-02-23T05:06:33;75490.78;;;-141.64;78.50
47753;BME280;2038;51.728;6.674;2024-02-23T05:08:59;75488.84;;;-141.64;78.44
47753;BME280;2038;51.728;6.674;2024-02-23T05:11:25;75484.94;;;-141.64;78.12
47753;BME280;2038;51.728;6.674;2024-02-23T05:13:52;75479.06;;;-141.64;77.69
47753;BME280;2038;51.728;6.674;2024-02-23T05:16:18;75473.22;;;-141.64;77.46
47753;BME280;2038;51.728;6.674;2024-02-23T05:18:44;75475.16;;;-141.64;77.42
47753;BME280;2038;51.728;6.674;2024-02-23T05:21:14;75469.31;;;-141.64;77.26
47753;BME280;2038;51.728;6.674;2024-02-23T05:23:41;75479.06;;;-141.64;77.82
47753;BME280;2038;51.728;6.674;2024-02-23T05:26:08;75475.16;;;-141.64;77.64
47753;BME280;2038;51.728;6.674;2024-02-23T05:28:34;75461.50;;;-141.64;77.83
47753;BME280;2038;51.728;6.674;2024-02-23T05:31:02;75453.69;;;-141.64;77.10
47753;BME280;2038;51.728;6.674;2024-02-23T05:33:29;75459.56;;;-141.64;77.09
47753;BME280;2038;51.728;6.674;2024-02-23T05:35:56;75461.50;;;-141.64;77.18
47753;BME280;2038;51.728;6.674;2024-02-23T05:38:22;75451.75;;;-141.64;77.02
47753;BME280;2038;51.728;6.674;2024-02-23T05:40:48;75445.88;;;-141.64;76.78
47753;BME280;2038;51.728;6.674;2024-02-23T05:43:15;75440.03;;;-141.64;77.06
47753;BME280;2038;51.728;6.674;2024-02-23T05:45:41;75445.88;;;-141.64;76.66
47753;BME280;2038;51.728;6.674;2024-02-23T05:48:07;75440.03;;;-141.64;76.86
47753;BME280;2038;51.728;6.674;2024-02-23T05:50:34;75442.00;;;-141.64;76.47
47753;BME280;2038;51.728;6.674;2024-02-23T05:53:00;75436.13;;;-141.64;76.34
47753;BME280;2038;51.728;6.674;2024-02-23T05:55:26;75434.19;;;-141.64;76.05
47753;BME280;2038;51.728;6.674;2024-02-23T05:57:52;75430.28;;;-141.64;76.54
47753;BME280;2038;51.728;6.674;2024-02-23T06:00:19;75416.59;;;-141.64;76.20
47753;BME280;2038;51.728;6.674;2024-02-23T06:02:46;75432.22;;;-141.64;76.58
47753;BME280;2038;51.728;6.674;2024-02-23T06:05:13;75430.28;;;-141.64;76.46
47753;BME280;2038;51.728;6.674;2024-02-23T06:07:40;75438.09;;;-141.64;76.16
47753;BME280;2038;51.728;6.674;2024-02-23T06:10:07;75443.94;;;-141.64;75.83
47753;BME280;2038;51.728;6.674;2024-02-23T06:12:33;75428.31;;;-141.64;75.59
47753;BME280;2038;51.728;6.674;2024-02-23T06:15:00;75440.03;;;-141.64;75.92
47753;BME280;2038;51.728;6.674;2024-02-23T06:17:26;75432.22;;;-141.64;75.48
47753;BME280;2038;51.728;6.674;2024-02-23T06:19:53;75428.31;;;-141.64;75.55
47753;BME280;2038;51.728;6.674;2024-02-23T06:22:19;75428.31;;;-141.64;75.79
47753;BME280;2038;51.728;6.674;2024-02-23T06:24:49;75418.56;;;-141.64;75.48
47753;BME280;2038;51.728;6.674;2024-02-23T06:27:15;75426.38;;;-141.64;75.50
47753;BME280;2038;51.728;6.674;2024-02-23T06:29:42;75436.13;;;-141.64;75.32
47753;BME280;2038;51.728;6.674;2024-02-23T06:32:08;75434.19;;;-141.64;75.69
47753;BME280;2038;51.728;6.674;2024-02-23T06:34:34;75436.13;;;-141.64;75.28
47753;BME280;2038;51.728;6.674;2024-02-23T06:37:01;75428.31;;;-141.64;75.34
47753;BME280;2038;51.728;6.674;2024-02-23T06:39:27;75418.56;;;-141.64;75.33
47753;BME280;2038;51.728;6.674;2024-02-23T06:41:54;75420.50;;;-141.64;75.60
47753;BME280;2038;51.728;6.674;2024-02-23T06:44:20;75424.41;;;-141.64;75.28
47753;BME280;2038;51.728;6.674;2024-02-23T06:46:46;75422.47;;;-141.64;75.36
47753;BME280;2038;51.728;6.674;2024-02-23T06:49:12;75418.56;;;-141.64;75.31
47753;BME280;2038;51.728;6.674;2024-02-23T06:51:39;75420.50;;;-141.64;75.07
47753;BME280;2038;51.728;6.674;2024-02-23T06:54:06;75406.84;;;-141.64;75.60
47753;BME280;2038;51.728;6.674;2024-02-23T06:56:34;75399.03;;;-141.64;75.13
47753;BME280;2038;51.728;6.674;2024-02-23T06:59:00;75395.13;;;-141.64;75.39
47753;BME280;2038;51.728;6.674;2024-02-23T07:01:26;75404.91;;;-141.64;75.01
47753;BME280;2038;51.728;6.674;2024-02-23T07:03:53;75399.03;;;-141.64;74.73
47753;BME280;2038;51.728;6.674;2024-02-23T07:06:20;75397.09;;;-141.64;74.53
47753;BME280;2038;51.728;6.674;2024-02-23T07:08:46;75395.13;;;-141.64;74.59
47753;BME280;2038;51.728;6.674;2024-02-23T07:11:12;75391.25;;;-141.64;74.99
47753;BME280;2038;51.728;6.674;2024-02-23T07:13:38;75399.03;;;-141.64;74.87
47753;BME280;2038;51.728;6.674;2024-02-23T07:16:08;75401.00;;;-141.64;74.73
47753;BME280;2038;51.728;6.674;2024-02-23T07:18:34;75399.03;;;-141.64;74.68
47753;BME280;2038;51.728;6.674;2024-02-23T07:21:00;75393.19;;;-141.64;74.09
47753;BME280;2038;51.728;6.674;2024-02-23T07:23:27;75395.13;;;-141.64;74.10
47753;BME280;2038;51.728;6.674;2024-02-23T07:25:54;75387.34;;;-141.64;74.18
47753;BME280;2038;51.728;6.674;2024-02-23T07:28:20;75391.25;;;-141.64;74.17
47753;BME280;2038;51.728;6.674;2024-02-23T07:30:48;75387.34;;;-141.64;74.36
47753;BME280;2038;51.728;6.674;2024-02-23T07:33:15;75391.25;;;-141.64;74.12
47753;BME280;2038;51.728;6.674;2024-02-23T07:35:41;75385.38;;;-141.64;74.47
47753;BME280;2038;51.728;6.674;2024-02-23T07:38:08;75363.91;;;-141.64;74.09
47753;BME280;2038;51.728;6.674;2024-02-23T07:40:34;75371.72;;;-141.64;74.14
47753;BME280;2038;51.728;6.674;2024-02-23T07:43:01;75350.25;;;-141.64;73.77
47753;BME280;2038;51.728;6.674;2024-02-23T07:45:27;75354.16;;;-141.64;73.69
47753;BME280;2038;51.728;6.674;2024-02-23T07:47:53;75352.19;;;-141.64;74.33
47753;BME280;2038;51.728;6.674;2024-02-23T07:50:19;75340.50;;;-141.64;73.81
47753;BME280;2038;51.728;6.674;2024-02-23T07:52:46;75340.50;;;-141.64;73.81
47753;BME280;2038;51.728;6.674;2024-02-23T07:55:12;75344.41;;;-141.64;73.41
47753;BME280;2038;51.728;6.674;2024-02-23T07:57:38;75336.59;;;-141.64;73.24
47753;BME280;2038;51.728;6.674;2024-02-23T08:00:06;75332.69;;;-141.64;73.55
47753;BME280;2038;51.728;6.674;2024-02-23T08:02:35;75338.53;;;-141.64;73.65
47753;BME280;2038;51.728;6.674;2024-02-23T08:05:02;75332.69;;;-141.64;73.15
47753;BME280;2038;51.728;6.674;2024-02-23T08:07:29;75334.63;;;-141.64;73.04
47753;BME280;2038;51.728;6.674;2024-02-23T08:09:56;75332.69;;;-141.64;73.08
47753;BME280;2038;51.728;6.674;2024-02-23T08:12:23;75336.59;;;-141.64;72.74
47753;BME280;2038;51.728;6.674;2024-02-23T08:14:49;75322.94;;;-141.64;72.68
47753;BME280;2038;51.728;6.674;2024-02-23T08:17:19;75324.88;;;-141.64;72.77
47753;BME280;2038;51.728;6.674;2024-02-23T08:19:46;75320.97;;;-141.64;72.60
47753;BME280;2038;51.728;6.674;2024-02-23T08:22:12;75309.25;;;-141.64;73.26
47753;BME280;2038;51.728;6.674;2024-02-23T08:24:38;75315.13;;;-141.64;72.56
47753;BME280;2038;51.728;6.674;2024-02-23T08:27:05;75297.56;;;-141.64;72.63
47753;BME280;2038;51.728;6.674;2024-02-23T08:29:31;75301.44;;;-141.64;72.78
47753;BME280;2038;51.728;6.674;2024-02-23T08:31:57;75299.50;;;-141.64;72.90
47753;BME280;2038;51.728;6.674;2024-02-23T08:34:23;75278.03;;;-141.64;72.77
47753;BME280;2038;51.728;6.674;2024-02-23T08:36:50;75254.63;;;-141.64;72.35
47753;BME280;2038;51.728;6.674;2024-02-23T08:39:17;75244.84;;;-141.64;71.77
47753;BME280;2038;51.728;6.674;2024-02-23T08:41:43;75242.91;;;-141.64;71.57
47753;BME280;2038;51.728;6.674;2024-02-23T08:44:09;75233.16;;;-141.64;71.49
47753;BME280;2038;51.728;6.674;2024-02-23T08:46:35;75223.38;;;-141.64;71.23
47753;BME280;2038;51.728;6.674;2024-02-23T08:49:05;75215.59;;;-141.64;71.22
47753;BME280;2038;51.728;6.674;2024-02-23T08:51:31;75219.47;;;-141.64;70.88
47753;BME280;2038;51.728;6.674;2024-02-23T08:53:58;75223.38;;;-141.64;71.65
47753;BME280;2038;51.728;6.674;2024-02-23T08:56:29;75229.25;;;-141.64;71.22
47753;BME280;2038;51.728;6.674;2024-02-23T08:58:55;75231.19;;;-141.64;70.71
47753;BME280;2038;51.728;6.674;2024-02-23T09:01:21;75231.19;;;-141.64;70.80
47753;BME280;2038;51.728;6.674;2024-02-23T09:03:47;75237.06;;;-141.64;70.71
47753;BME280;2038;51.728;6.674;2024-02-23T09:06:14;75221.44;;;-141.64;71.51
47753;BME280;2038;51.728;6.674;2024-02-23T09:08:41;75250.72;;;-141.64;71.46
47753;BME280;2038;51.728;6.674;2024-02-23T09:11:07;75244.84;;;-141.64;71.69
47753;BME280;2038;51.728;6.674;2024-02-23T09:13:33;75240.94;;;-141.64;71.99
47753;BME280;2038;51.728;6.674;2024-02-23T09:16:00;75225.34;;;-141.64;71.74
47753;BME280;2038;51.728;6.674;2024-02-23T09:18:26;75223.38;;;-141.64;71.92
47753;BME280;2038;51.728;6.674;2024-02-23T09:20:53;75227.28;;;-141.64;71.64
47753;BME280;2038;51.728;6.674;2024-02-23T09:23:19;75205.81;;;-141.64;71.02
47753;BME280;2038;51.728;6.674;2024-02-23T09:25:45;75196.06;;;-141.64;70.97
47753;BME280;2038;51.728;6.674;2024-02-23T09:28:11;75211.69;;;-141.64;71.03
47753;BME280;2038;51.728;6.674;2024-02-23T09:30:38;75192.16;;;-141.64;70.94
47753;BME280;2038;51.728;6.674;2024-02-23T09:33:05;75190.22;;;-141.64;70.57
47753;BME280;2038;51.728;6.674;2024-02-23T09:35:31;75174.59;;;-141.64;70.25
47753;BME280;2038;51.728;6.674;2024-02-23T09:37:57;75174.59;;;-141.64;69.64
47753;BME280;2038;51.728;6.674;2024-02-23T09:40:24;75178.50;;;-141.64;69.62
47753;BME280;2038;51.728;6.674;2024-02-23T09:42:57;75186.31;;;-141.64;69.72
47753;BME280;2038;51.728;6.674;2024-02-23T09:45:27;75186.31;;;-141.64;69.60
47753;BME280;2038;51.728;6.674;2024-02-23T09:47:55;75170.69;;;-141.64;70.03
47753;BME280;2038;51.728;6.674;2024-02-23T09:50:25;75170.69;;;-141.64;69.24
47753;BME280;2038;51.728;6.674;2024-02-23T09:52:57;75178.50;;;-141.64;69.83
47753;BME280;2038;51.728;6.674;2024-02-23T09:55:24;75157.03;;;-141.64;69.53
47753;BME280;2038;51.728;6.674;2024-02-23T09:57:53;75172.63;;;-141.64;68.32
47753;BME280;2038;51.728;6.674;2024-02-23T10:00:24;75184.34;;;-141.64;68.44
47753;BME280;2038;51.728;6.674;2024-02-23T10:02:51;75192.16;;;-141.64;68.49
47753;BME280;2038;51.728;6.674;2024-02-23T10:05:19;75186.31;;;-141.64;68.50
47753;BME280;2038;51.728;6.674;2024-02-23T10:07:48;75172.63;;;-141.64;68.04
47753;BME280;2038;51.728;6.674;2024-02-23T10:10:14;75153.13;;;-141.64;68.60
47753;BME280;2038;51.728;6.674;2024-02-23T10:12:41;75158.97;;;-141.64;68.50
47753;BME280;2038;51.728;6.674;2024-02-23T10:15:07;75153.13;;;-141.64;68.15
47753;BME280;2038;51.728;6.674;2024-02-23T10:17:33;75145.31;;;-141.64;68.46
47753;BME280;2038;51.728;6.674;2024-02-23T10:20:00;75147.28;;;-141.64;67.94
47753;BME280;2038;51.728;6.674;2024-02-23T10:22:31;75143.38;;;-141.64;68.02
47753;BME280;2038;51.728;6.674;2024-02-23T10:24:57;75129.69;;;-141.64;67.76
47753;BME280;2038;51.728;6.674;2024-02-23T10:27:24;75106.28;;;-141.64;68.09
47753;BME280;2038;51.728;6.674;2024-02-23T10:29:50;75092.63;;;-141.64;68.01
47753;BME280;2038;51.728;6.674;2024-02-23T10:32:19;75090.66;;;-141.64;67.87
47753;BME280;2038;51.728;6.674;2024-02-23T10:34:48;75102.38;;;-141.64;66.72
47753;BME280;2038;51.728;6.674;2024-02-23T10:37:16;75108.22;;;-141.64;66.39
47753;BME280;2038;51.728;6.674;2024-02-23T10:39:43;75108.22;;;-141.64;66.29
47753;BME280;2038;51.728;6.674;2024-02-23T10:42:13;75121.91;;;-141.64;66.58
47753;BME280;2038;51.728;6.674;2024-02-23T10:44:43;75121.91;;;-141.64;66.36
47753;BME280;2038;51.728;6.674;2024-02-23T10:47:12;75141.41;;;-141.64;66.97
47753;BME280;2038;51.728;6.674;2024-02-23T10:49:39;75147.28;;;-141.64;66.88
47753;BME280;2038;51.728;6.674;2024-02-23T10:52:06;75170.69;;;-141.64;66.70
47753;BME280;2038;51.728;6.674;2024-02-23T10:54:35;75180.44;;;-141.64;66.68
47753;BME280;2038;51.728;6.674;2024-02-23T10:57:02;75180.44;;;-141.64;67.69
47753;BME280;2038;51.728;6.674;2024-02-23T10:59:29;75184.34;;;-141.64;68.07
47753;BME280;2038;51.728;6.674;2024-02-23T11:01:57;75190.22;;;-141.64;67.55
47753;BME280;2038;51.728;6.674;2024-02-23T11:04:26;75184.34;;;-141.64;67.56
47753;BME280;2038;51.728;6.674;2024-02-23T11:06:55;75188.25;;;-141.64;67.63
47753;BME280;2038;51.728;6.674;2024-02-23T11:09:24;75194.09;;;-141.64;67.38
47753;BME280;2038;51.728;6.674;2024-02-23T11:14:32;75184.34;;;-141.64;68.21
47753;BME280;2038;51.728;6.674;2024-02-23T11:17:02;75186.31;;;-141.64;67.98
47753;BME280;2038;51.728;6.674;2024-02-23T11:19:33;75186.31;;;-141.64;68.41
47753;BME280;2038;51.728;6.674;2024-02-23T11:22:04;75194.09;;;-141.64;67.51
47753;BME280;2038;51.728;6.674;2024-02-23T11:24:35;75172.63;;;-141.64;67.72
47753;BME280;2038;51.728;6.674;2024-02-23T11:27:14;75192.16;;;-141.64;67.14
47753;BME280;2038;51.728;6.674;2024-02-23T11:29:46;75188.25;;;-141.64;67.08
47753;BME280;2038;51.728;6.674;2024-02-23T11:32:16;75180.44;;;-141.64;67.03
47753;BME280;2038;51.728;6.674;2024-02-23T11:34:58;75168.75;;;-141.64;67.32
47753;BME280;2038;51.728;6.674;2024-02-23T11:37:27;75172.63;;;-141.64;66.84
47753;BME280;2038;51.728;6.674;2024-02-23T11:39:55;75188.25;;;-141.64;67.26
47753;BME280;2038;51.728;6.674;2024-02-23T11:42:24;75170.69;;;-141.64;67.71
47753;BME280;2038;51.728;6.674;2024-02-23T11:44:51;75182.41;;;-141.64;67.86
47753;BME280;2038;51.728;6.674;2024-02-23T11:47:19;75199.97;;;-141.64;68.69
47753;BME280;2038;51.728;6.674;2024-02-23T11:49:46;75213.63;;;-141.64;69.60
47753;BME280;2038;51.728;6.674;2024-02-23T11:52:12;75223.38;;;-141.64;70.41
47753;BME280;2038;51.728;6.674;2024-02-23T11:54:38;75221.44;;;-141.64;71.63
47753;BME280;2038;51.728;6.674;2024-02-23T11:57:04;75239.00;;;-141.64;72.47
47753;BME280;2038;51.728;6.674;2024-02-23T11:59:32;75239.00;;;-141.64;72.55
47753;BME280;2038;51.728;6.674;2024-02-23T12:01:58;75237.06;;;-141.64;72.26
47753;BME280;2038;51.728;6.674;2024-02-23T12:04:26;75237.06;;;-141.64;72.31
47753;BME280;2038;51.728;6.674;2024-02-23T12:06:53;75225.34;;;-141.64;72.18
47753;BME280;2038;51.728;6.674;2024-02-23T12:09:19;75221.44;;;-141.64;72.15
47753;BME280;2038;51.728;6.674;2024-02-23T12:11:46;75205.81;;;-141.64;72.81
47753;BME280;2038;51.728;6.674;2024-02-23T12:14:13;75203.88;;;-141.64;72.38
47753;BME280;2038;51.728;6.674;2024-02-23T12:16:40;75184.34;;;-141.64;72.49
47753;BME280;2038;51.728;6.674;2024-02-23T12:19:08;75188.25;;;-141.64;71.93
47753;BME280;2038;51.728;6.674;2024-02-23T12:21:35;75196.06;;;-141.64;71.57
47753;BME280;2038;51.728;6.674;2024-02-23T12:24:05;75201.91;;;-141.64;71.86
47753;BME280;2038;51.728;6.674;2024-02-23T12:26:33;75190.22;;;-141.64;72.41
47753;BME280;2038;51.728;6.674;2024-02-23T12:29:04;75176.53;;;-141.64;72.64
47753;BME280;2038;51.728;6.674;2024-02-23T12:31:32;75176.53;;;-141.64;71.44
47753;BME280;2038;51.728;6.674;2024-02-23T12:33:59;75168.75;;;-141.64;71.25
47753;BME280;2038;51.728;6.674;2024-02-23T12:36:25;75157.03;;;-141.64;71.40
47753;BME280;2038;51.728;6.674;2024-02-23T12:38:51;75145.31;;;-141.64;71.49
47753;BME280;2038;51.728;6.674;2024-02-23T12:41:17;75162.88;;;-141.64;69.47
47753;BME280;2038;51.728;6.674;2024-02-23T12:43:44;75151.16;;;-141.64;69.72
47753;BME280;2038;51.728;6.674;2024-02-23T12:46:10;75166.78;;;-141.64;70.31
47753;BME280;2038;51.728;6.674;2024-02-23T12:48:39;75158.97;;;-141.64;70.08
47753;BME280;2038;51.728;6.674;2024-02-23T12:51:06;75155.06;;;-141.64;70.79